createdAt,value
2022-12-07T00:04:54.504Z,10.77
2022-12-07T00:09:55.960Z,11.43
2022-12-07T00:14:57.458Z,10.52
2022-12-07T00:19:59.357Z,12.90
2022-12-07T00:25:00.954Z,12.45
2022-12-07T00:30:03.122Z,11.23
2022-12-07T00:35:05.260Z,12.50
2022-12-07T00:40:07.758Z,11.05
2022-12-07T00:45:09.755Z,12.48
2022-12-07T00:50:11.347Z,11.07
2022-12-07T00:55:12.796Z,11.63
2022-12-07T01:00:14.664Z,12.65
2022-12-07T01:05:16.160Z,10.52
2022-12-07T01:10:17.627Z,13.15
2022-12-07T01:15:19.259Z,11.15
2022-12-07T01:20:20.677Z,11.80
2022-12-07T01:25:22.243Z,10.60
2022-12-07T01:30:23.917Z,11.23
2022-12-07T01:35:25.476Z,11.80
2022-12-07T01:40:26.996Z,12.48
2022-12-07T01:45:40.510Z,12.07
2022-12-07T01:50:44.653Z,11.77
2022-12-07T01:55:52.209Z,12.10
2022-12-07T02:00:53.746Z,11.65
2022-12-07T02:05:56.458Z,13.02
2022-12-07T02:10:57.892Z,11.70
2022-12-07T02:16:44.809Z,11.88
2022-12-07T02:22:05.816Z,11.82
2022-12-07T02:27:35.182Z,10.93
2022-12-07T02:32:42.658Z,10.98
2022-12-07T02:38:16.771Z,8.73
2022-12-07T02:43:24.491Z,10.27
2022-12-07T02:48:27.912Z,12.23
2022-12-07T02:53:34.156Z,10.45
2022-12-07T02:58:38.461Z,10.80
2022-12-07T03:03:44.489Z,9.95
2022-12-07T03:09:01.448Z,10.50
2022-12-07T03:14:14.379Z,11.05
2022-12-07T03:19:19.623Z,11.43
2022-12-07T03:24:27.322Z,10.60
2022-12-07T03:29:35.275Z,12.10
2022-12-07T03:35:13.850Z,10.88
2022-12-07T03:40:31.967Z,10.43
2022-12-07T03:45:44.219Z,11.52
2022-12-07T03:50:53.512Z,9.77
2022-12-07T03:55:55.831Z,9.32
2022-12-07T04:00:57.276Z,9.35
2022-12-07T04:05:59.768Z,8.98
2022-12-07T04:11:01.831Z,10.70
2022-12-07T04:16:03.430Z,10.05
2022-12-07T04:21:04.929Z,9.88
2022-12-07T04:26:07.478Z,11.10
2022-12-07T04:31:09.047Z,10.40
2022-12-07T04:36:10.652Z,11.32
2022-12-07T04:41:12.140Z,11.32
2022-12-07T04:46:13.625Z,12.63
2022-12-07T04:51:19.328Z,12.07
2022-12-07T04:56:20.874Z,11.13
2022-12-07T05:01:23.697Z,12.10
2022-12-07T05:06:25.502Z,11.95
2022-12-07T05:11:39.378Z,11.45
2022-12-07T05:16:41.915Z,10.23
2022-12-07T05:21:43.658Z,11.60
2022-12-07T05:26:46.116Z,10.88
2022-12-07T05:31:47.641Z,10.57
2022-12-07T05:36:49.206Z,10.35
2022-12-07T05:42:09.116Z,10.18
2022-12-07T05:47:11.348Z,10.47
2022-12-07T05:52:12.807Z,9.45
2022-12-07T05:57:14.320Z,9.07
2022-12-07T06:02:17.830Z,10.00
2022-12-07T06:07:19.292Z,9.02
2022-12-07T06:12:35.995Z,9.13
2022-12-07T06:17:37.874Z,9.80
2022-12-07T06:22:39.389Z,9.95
2022-12-07T06:27:40.917Z,9.30
2022-12-07T06:32:42.386Z,8.20
2022-12-07T06:37:43.847Z,9.30
2022-12-07T06:42:45.484Z,9.13
2022-12-07T06:47:47.424Z,9.27
2022-12-07T06:52:49.186Z,9.40
2022-12-07T06:57:50.714Z,7.57
2022-12-07T07:02:52.276Z,8.32
2022-12-07T07:13:15.351Z,7.85
2022-12-07T07:18:16.836Z,8.73
2022-12-07T07:23:18.767Z,7.50
2022-12-07T07:28:20.297Z,7.20
2022-12-07T07:33:21.815Z,7.57
2022-12-07T07:38:23.473Z,7.80
2022-12-07T07:43:24.887Z,7.30
2022-12-07T07:48:26.469Z,6.75
2022-12-07T07:53:27.945Z,7.15
2022-12-07T07:58:29.347Z,9.18
2022-12-07T08:03:30.810Z,8.05
2022-12-07T08:08:32.883Z,7.40
2022-12-07T08:13:34.382Z,7.45
2022-12-07T08:18:40.815Z,6.32
2022-12-07T08:23:42.652Z,7.85
2022-12-07T08:28:46.040Z,7.50
2022-12-07T08:33:49.010Z,7.68
2022-12-07T08:39:29.318Z,6.68
2022-12-07T08:44:12.767Z,7.97
2022-12-07T08:49:19.087Z,6.40
2022-12-07T08:54:20.789Z,6.40
2022-12-07T08:59:22.544Z,6.55
2022-12-07T09:04:24.064Z,7.15
2022-12-07T09:09:25.640Z,7.05
2022-12-07T09:14:27.165Z,6.50
2022-12-07T09:19:28.583Z,6.97
2022-12-07T09:24:30.058Z,7.53
2022-12-07T09:29:31.477Z,7.15
2022-12-07T09:34:33.285Z,7.25
2022-12-07T09:39:38.324Z,6.95
2022-12-07T09:44:41.332Z,7.03
2022-12-07T09:49:42.854Z,6.43
2022-12-07T09:54:48.360Z,7.00
2022-12-07T09:59:49.809Z,6.85
2022-12-07T10:04:51.435Z,6.07
2022-12-07T10:09:52.926Z,5.15
2022-12-07T10:15:18.411Z,6.25
2022-12-07T10:20:28.178Z,5.95
2022-12-07T10:25:35.363Z,6.50
2022-12-07T10:30:55.429Z,6.00
2022-12-07T10:35:57.783Z,5.78
2022-12-07T10:41:07.692Z,6.35
2022-12-07T10:46:38.429Z,5.20
2022-12-07T10:51:50.454Z,5.97
2022-12-07T10:57:10.637Z,5.40
2022-12-07T11:02:27.500Z,5.00
2022-12-07T11:07:38.186Z,5.72
2022-12-07T11:12:39.603Z,5.93
2022-12-07T11:17:49.842Z,6.45
2022-12-07T11:23:18.593Z,6.20
2022-12-07T11:28:38.412Z,5.47
2022-12-07T11:33:46.907Z,5.80
2022-12-07T11:38:56.058Z,6.00
2022-12-07T11:44:07.138Z,6.22
2022-12-07T11:49:36.482Z,5.85
2022-12-07T11:54:44.530Z,6.55
2022-12-07T11:59:52.571Z,5.53
2022-12-07T12:04:56.642Z,5.53
2022-12-07T12:10:07.625Z,6.72
2022-12-07T12:15:24.618Z,7.18
2022-12-07T12:20:50.634Z,7.15
2022-12-07T12:26:02.456Z,7.07
2022-12-07T12:31:11.874Z,9.10
2022-12-07T12:36:19.098Z,8.77
2022-12-07T12:41:47.897Z,7.22
2022-12-07T12:46:52.417Z,7.28
2022-12-07T12:51:59.680Z,7.45
2022-12-07T12:57:13.036Z,6.13
2022-12-07T13:02:22.004Z,6.68
2022-12-07T13:07:48.421Z,7.45
2022-12-07T13:13:14.831Z,6.75
2022-12-07T13:18:25.366Z,8.10
2022-12-07T13:28:46.480Z,7.57
2022-12-07T13:33:49.076Z,9.15
2022-12-07T13:39:15.388Z,9.02
2022-12-07T13:44:18.199Z,14.88
2022-12-07T13:49:31.184Z,10.52
2022-12-07T13:54:32.623Z,15.18
2022-12-07T13:59:34.524Z,10.05
2022-12-07T14:04:38.059Z,9.57
2022-12-07T14:09:39.478Z,9.07
2022-12-07T14:14:49.097Z,8.80
2022-12-07T14:19:56.073Z,9.18
2022-12-07T14:25:18.245Z,7.72
2022-12-07T14:30:20.170Z,7.90
2022-12-07T14:35:21.798Z,7.85
2022-12-07T14:40:25.427Z,6.55
2022-12-07T14:45:26.844Z,7.88
2022-12-07T14:50:28.357Z,8.45
2022-12-07T14:55:32.355Z,8.32
2022-12-07T15:00:35.195Z,7.63
2022-12-07T15:05:38.139Z,9.20
2022-12-07T15:10:41.102Z,7.30
2022-12-07T15:15:42.901Z,7.50
2022-12-07T15:20:45.110Z,7.88
2022-12-07T15:25:48.304Z,7.68
2022-12-07T15:30:49.778Z,8.18
2022-12-07T15:35:51.296Z,8.45
2022-12-07T15:40:52.726Z,8.45
2022-12-07T15:45:54.207Z,9.85
2022-12-07T15:51:06.634Z,7.95
2022-12-07T15:56:08.927Z,9.48
2022-12-07T16:01:14.450Z,9.88
2022-12-07T16:06:20.292Z,9.02
2022-12-07T16:11:21.934Z,8.32
2022-12-07T16:16:23.683Z,9.00
2022-12-07T16:21:25.913Z,9.20
2022-12-07T16:26:27.579Z,10.02
2022-12-07T16:31:29.533Z,10.43
2022-12-07T16:41:53.854Z,10.18
2022-12-07T16:46:55.528Z,10.23
2022-12-07T16:52:26.056Z,11.52
2022-12-07T16:57:23.143Z,10.50
2022-12-07T17:02:26.284Z,10.93
2022-12-07T17:07:27.749Z,10.45
2022-12-07T17:12:29.222Z,10.82
2022-12-07T17:17:30.753Z,10.60
2022-12-07T17:22:32.218Z,10.10
2022-12-07T17:27:33.801Z,10.68
2022-12-07T17:32:35.275Z,10.40
2022-12-07T17:37:36.749Z,11.57
2022-12-07T17:42:39.974Z,12.07
2022-12-07T17:47:41.507Z,11.48
2022-12-07T17:53:01.480Z,10.75
2022-12-07T17:58:02.917Z,12.40
2022-12-07T18:03:09.502Z,13.88
2022-12-07T18:08:11.121Z,12.95
2022-12-07T18:13:31.314Z,13.27
2022-12-07T18:18:32.817Z,15.43
2022-12-07T18:23:34.458Z,14.77
2022-12-07T18:28:35.946Z,14.23
2022-12-07T18:33:37.515Z,12.40
2022-12-07T18:38:39.611Z,13.18
2022-12-07T18:43:42.153Z,12.23
2022-12-07T18:48:45.462Z,14.05
2022-12-07T18:53:47.221Z,16.58
2022-12-07T18:59:09.029Z,14.80
2022-12-07T19:04:10.975Z,13.82
2022-12-07T19:09:13.537Z,12.73
2022-12-07T19:14:33.106Z,10.50
2022-12-07T19:19:36.990Z,10.05
2022-12-07T19:24:38.651Z,10.07
2022-12-07T19:29:40.583Z,11.20
2022-12-07T19:34:43.895Z,11.02
2022-12-07T19:39:46.568Z,10.63
2022-12-07T19:44:48.548Z,10.00
2022-12-07T19:49:50.033Z,8.35
2022-12-07T19:54:51.501Z,9.73
2022-12-07T19:59:52.932Z,11.27
2022-12-07T20:04:54.352Z,21.83
2022-12-07T20:09:55.918Z,17.52
2022-12-07T20:14:57.582Z,31.48
2022-12-07T20:19:59.009Z,21.77
2022-12-07T20:25:00.521Z,21.10
2022-12-07T20:30:02.041Z,19.90
2022-12-07T20:35:03.666Z,15.70
2022-12-07T20:40:06.398Z,13.82
2022-12-07T20:45:09.598Z,16.85
2022-12-07T20:50:11.377Z,16.90
2022-12-07T20:55:13.194Z,16.08
2022-12-07T21:00:15.153Z,16.77
2022-12-07T21:05:18.622Z,16.58
2022-12-07T21:10:20.076Z,14.13
2022-12-07T21:15:21.535Z,15.65
2022-12-07T21:20:22.946Z,15.68
2022-12-07T21:25:24.406Z,15.50
2022-12-07T21:30:25.863Z,15.52
2022-12-07T21:35:27.320Z,17.38
2022-12-07T21:40:28.786Z,12.80
2022-12-07T21:45:32.755Z,12.85
2022-12-07T21:50:37.986Z,10.52
2022-12-07T21:55:43.985Z,25.35
2022-12-07T22:00:45.421Z,13.50
2022-12-07T22:05:47.012Z,15.95
2022-12-07T22:10:48.434Z,15.20
2022-12-07T22:15:49.954Z,16.35
2022-12-07T22:20:56.191Z,16.65
2022-12-07T22:25:59.032Z,18.23
2022-12-07T22:31:06.907Z,16.55
2022-12-07T22:36:09.501Z,15.43
2022-12-07T22:41:12.326Z,12.95
2022-12-07T22:46:13.871Z,12.98
2022-12-07T22:51:24.692Z,14.40
2022-12-07T22:56:26.915Z,13.13
2022-12-07T23:01:28.383Z,12.00
2022-12-07T23:06:32.232Z,13.10
2022-12-07T23:11:55.787Z,13.50
2022-12-07T23:16:57.611Z,14.30
2022-12-07T23:21:59.124Z,15.70
2022-12-07T23:27:00.652Z,14.75
2022-12-07T23:32:02.214Z,14.95
2022-12-07T23:37:03.672Z,14.32
2022-12-07T23:42:05.166Z,11.13
2022-12-07T23:47:06.692Z,11.23
2022-12-07T23:52:08.258Z,11.20
2022-12-07T23:57:09.912Z,8.88
